Etusivu
METAR-TAF:

METAR-TAF

Lentoasemat :

Lewis University Airport

Romeoville, Illinois, Yhdysvallat

Leveyspiiri: 41-36-30N, Pituuspiiri: 088-05-39W, korkeus merenpinnasta: 205 m

Tämänhetkinen sää

Tämä raportti tehtiin 24 minuuttia sitten, kello 18.10 UTC
Tuuli 17 kn pohjoisesta puuskistuen 21 kn:hen
Lämpötila -1°C
Kosteus 80%
Ilmanpaine 1017 hPa
Näkyvyys: 16.1 km
Pilvistä 2300 ft:n korkeudessa

METAR: KLOT 261810Z AUTO 35017G21KT 10SM OVC023 M01/M04 A3004 RMK AO2 T10081041

Aika: 12:34 (18:34 UTC)


TAF: puuttuu

Säähavainnot ja -ennusteet yli 4000 lentoasemalta (METAR- ja TAF-raportit).

Käytössä olevat sääasemat on merkitty karttaan keltaisilla ja punaisilla pisteillä.

Aseta hiiri pisteen päälle nähdäksesi sääaseman nimen.

Klikkaa sitten nähdäksesi säähavainnot ja -ennusteet.

Kartan vaihtaminen: klikkaa mustalla rastilla varustettuja vihreitä pisteitä, niin voit zoomata sisään; viivalla varustettua vihreää pistettä, niin voit zoomata ulos tai vihreitä nuolia, niin pääset viereisille kartoille.


METAR-TAF: